Airfield :
LOGIN :

Register | Disclaimer

   EN    FR    IT 

 










Legend :    VFR   Marginal VFR   IFR   Intensive IFR   Very Intensive IFR
Visi :
Ceiling :
>= 8 km
>= 3000ft
5 to 8 km
1000 to 3000 ft
1500m to 5 km
500 to 1000 ft
800 to 1500m
200 to 500 ft
< 800m
< 200 ft
Symbols :   Thunderstorms  Fog  Heavy snow  Heavy precipitations  Wind > 20 kt
SIGMETs :     Misc.  Thunderstorms  Icing  Turbulence  Mountain Waves  Volcanic Ashes






- Airport Elevation : 226 ft
- IATA code : BEX


EGUB - RAF Benson

CURRENT METAR :
  • 281250Z 17017KT 9999 VCSH FEW018CB BKN020 17/12 Q1013 TEMPO 5000 SHRA RMK WHT TEMPO WHT

EXPIRED METARs :
  • 281222Z 18016KT 9999 VCSH FEW018CB SCT020 17/12 Q1014 TEMPO 5000 SHRA RMK WHT TEMPO WHT
  • 281150Z 18015KT 9999 FEW015CB SCT020 17/12 Q1014 TEMPO 5000 SHRA RMK WHT TEMPO WHT
  • 281050Z 18012KT 9999 SCT015CB SCT150 15/12 Q1015 TEMPO 5000 SHRA RMK WHT TEMPO WHT

TAF TAF EGUB
Valid from the 28 at 12:00 until the 28 at 21:00 UTC


281033Z 2812/2821 18014KT 9999 SCT025
TEMPO 2812/2817 6000 SHRA BKN018CB
PROB30
TEMPO 2812/2821 19015G25KT 3500 +SHRA
TEMPO 2817/2821 6000 SHRA BKN014CB
ATIS : +44 1491-837766 (x7524)



MET'MAP, your aeronautical weather chart ! - Copyright ORBIFLY December 2007 - Disclaimer

ORBIFLY MET'MAP TEAM :

Programming & Development : Alexandra Zaïnal
Concept & original design : Baudouin d'Aumeries
Assistance for programming : Marc-Olivier Méhu
Technical & hardware support : Manuel Goepfert

Contact : metmap@orbifly.com




SOURCES & CREDITS :

   NOAA